Accueil
METAR-TAF:

METAR-TAF

Aéroports :

Lumberton Municipal Airport

Lumberton, Caroline du Nord, États-Unis

latitude: 34-36-26N, longitude: 079-03-36W, altitude: 38 m

METAR: absent

Heure: 08:55 (12:55 UTC)

Prévision

Le bulletin a été fait il y a 1 heure et 35 minutes, à 11:20 UTC
Prévision valable du 04 à 12 UTC au 05 à 12 UTC
Vent 5 kt de nord
Visibilité: 10 km
Quelques nuages à une hauteur de 25000 ft
A partir de 04 à 1800 UTC
Vent 8 kt de nord-est
Visibilité: 10 km
Quelques nuages à une hauteur de 20000 ft
A partir de 05 à 0000 UTC
Vent 4 kt de est/nord-est
Visibilité: 10 km
Quelques nuages à une hauteur de 20000 ft

TAF: KLBT 041120Z 0412/0512 01005KT P6SM FEW250 FM041800 04008KT P6SM FEW200 FM050000 07004KT P6SM FEW200 AMD NOT SKED

Observations et prévisions météorologiques de plus de 4000 aéroports (messages METAR et TAF).

Les stations disponibles sont représentées par des disques jaunes et rouges sur la carte.

Passer la souris dessus pour voir le nom de la station.

Cliquer dessus pour voir les observations et prévisions météorologiques.

Pour changer de carte: cliquez sur les boutons verts avec une croix noire pour zoomer, sur le bouton vert avec un tiret pour effectuer un zoom arrière, ou sur les flèches vertes pour les cartes adjacentes.


METAR-TAF: